Terminal Aerodrome Forecast
Issued by NWS

Home | Current Version | Previous Version | Text Only | Print | Product List | Glossary On
Versions: 1 2 3 4 5 6 7 8 9 10 11 12 13 14
710
FTUS43 KMQT 230520
TAFIWD
TAF
KIWD 230520Z 2306/2406 17009KT P6SM BKN100
     FM230900 18010KT P6SM -SHSN OVC060
     FM231100 17010KT P6SM OVC040
     FM232100 18012G19KT P6SM VCSH BKN035
     FM240000 18008KT P6SM -RA OVC025
     FM240200 18007KT P6SM -RA OVC015
     FM240500 19004KT P6SM -RA OVC008=

USA.gov is the U.S. government's official web portal to all federal, state and local government web resources and services.